Time;durP1;ratioP1;P1;durP2;ratioP2;P2;SDS_P1;SDS_P2;PMS_P1;PMS_P2;Temp;Humidity;BMP_temperature;BMP_pressure;BME280_temperature;BME280_humidity;BME280_pressure;Samples;Min_cycle;Max_cycle;Signal;HPM_P1;HPM_P2
2021/12/05 00:22:44;;;;;;;1.17;1.08;;;;;;;;;;4963261;28;20556;-72
2021/12/05 00:25:11;;;;;;;0.85;0.85;;;;;;;;;;4985076;28;20035;-72
2021/12/05 00:27:51;;;;;;;1.67;0.90;;;;;;;;;;4977330;28;20037;-73
2021/12/05 01:02:44;;;;;;;0.80;0.80;;;;;;;;;;4987487;28;20042;-76
2021/12/05 01:05:30;;;;;;;0.90;0.90;;;;;;;;;;4979134;28;20035;-76
2021/12/05 01:08:08;;;;;;;0.95;0.95;;;;;;;;;;4963082;28;20022;-77
2021/12/05 01:15:53;;;;;;;0.70;0.70;;;;;;;;;;4988578;28;20030;-75
2021/12/05 01:18:20;;;;;;;0.85;0.85;;;;;;;;;;4991881;28;20125;-77
2021/12/05 01:20:47;;;;;;;0.88;0.88;;;;;;;;;;4991057;28;20065;-75
2021/12/05 01:26:04;;;;;;;0.90;0.90;;;;;;;;;;4976480;28;20481;-76
2021/12/05 01:31:22;;;;;;;0.85;0.85;;;;;;;;;;4991324;28;20113;-76
2021/12/05 01:39:21;;;;;;;1.10;1.10;;;;;;;;;;4993288;28;20072;-76
2021/12/05 01:47:40;;;;;;;1.40;1.30;;;;;;;;;;4980529;28;20037;-75
2021/12/05 01:50:45;;;;;;;1.67;1.33;;;;;;;;;;4993233;28;20385;-76
2021/12/05 01:56:14;;;;;;;1.65;1.55;;;;;;;;;;4991592;28;20097;-76
2021/12/05 02:01:40;;;;;;;3.05;1.98;;;;;;;;;;4991585;28;20037;-75
2021/12/05 02:41:46;;;;;;;6.10;2.03;;;;;;;;;;4991612;28;20031;-76
2021/12/05 02:44:21;;;;;;;5.38;2.22;;;;;;;;;;4988488;28;20031;-76
2021/12/05 02:47:02;;;;;;;4.93;2.00;;;;;;;;;;4988719;28;20478;-74
2021/12/05 02:49:27;;;;;;;5.03;1.98;;;;;;;;;;4991087;28;20039;-75
2021/12/05 02:51:57;;;;;;;5.32;2.30;;;;;;;;;;4991153;28;20026;-74
2021/12/05 02:54:23;;;;;;;2.67;2.10;;;;;;;;;;4991385;28;20030;-76
2021/12/05 02:56:50;;;;;;;4.13;2.20;;;;;;;;;;4992900;28;20038;-76
2021/12/05 02:59:39;;;;;;;4.75;2.33;;;;;;;;;;4991892;28;20539;-74
2021/12/05 03:02:11;;;;;;;2.85;2.00;;;;;;;;;;4991075;28;20505;-76
2021/12/05 03:04:37;;;;;;;6.00;2.38;;;;;;;;;;4990383;28;20044;-76
2021/12/05 03:07:06;;;;;;;4.32;2.13;;;;;;;;;;4988713;28;20056;-75
2021/12/05 03:09:31;;;;;;;4.38;2.15;;;;;;;;;;4992023;28;20396;-76
2021/12/05 03:11:57;;;;;;;3.53;1.98;;;;;;;;;;4990640;28;20033;-76
2021/12/05 03:14:22;;;;;;;2.65;1.90;;;;;;;;;;4989971;28;20050;-75
2021/12/05 03:16:48;;;;;;;3.97;1.77;;;;;;;;;;4981009;28;20037;-75
2021/12/05 03:19:13;;;;;;;5.13;1.90;;;;;;;;;;4990667;28;20485;-75
2021/12/05 03:21:39;;;;;;;2.47;1.80;;;;;;;;;;4991398;28;20026;-75
2021/12/05 03:24:05;;;;;;;6.45;2.00;;;;;;;;;;4989742;28;20035;-75
2021/12/05 03:26:35;;;;;;;1.80;1.70;;;;;;;;;;4975399;28;20037;-75
2021/12/05 03:29:00;;;;;;;5.53;1.60;;;;;;;;;;4970859;28;20123;-74
2021/12/05 03:31:28;;;;;;;4.82;2.20;;;;;;;;;;4987155;28;20477;-75
2021/12/05 03:33:54;;;;;;;2.88;1.77;;;;;;;;;;4994876;28;20551;-75
2021/12/05 03:36:19;;;;;;;4.15;1.98;;;;;;;;;;4994034;28;20026;-75
2021/12/05 03:38:45;;;;;;;2.45;2.05;;;;;;;;;;4990606;28;20038;-75
2021/12/05 03:41:10;;;;;;;9.02;2.10;;;;;;;;;;4994238;28;20058;-75
2021/12/05 03:43:36;;;;;;;2.58;1.80;;;;;;;;;;4977510;28;20033;-75
2021/12/05 03:46:01;;;;;;;4.05;2.03;;;;;;;;;;4992540;28;20026;-75
2021/12/05 03:48:28;;;;;;;5.18;2.28;;;;;;;;;;4972885;28;20474;-75
2021/12/05 03:50:54;;;;;;;3.42;2.03;;;;;;;;;;4978755;28;20113;-75
2021/12/05 03:53:19;;;;;;;4.45;1.92;;;;;;;;;;4993618;28;20117;-75
2021/12/05 03:55:48;;;;;;;3.42;2.17;;;;;;;;;;4993123;28;20023;-75
2021/12/05 03:58:13;;;;;;;9.07;2.38;;;;;;;;;;4993841;28;20022;-75
2021/12/05 04:00:41;;;;;;;2.78;1.63;;;;;;;;;;4994615;28;20034;-75
2021/12/05 04:03:08;;;;;;;4.05;2.22;;;;;;;;;;4994010;28;20031;-75
2021/12/05 04:05:34;;;;;;;9.90;2.20;;;;;;;;;;4986628;28;20434;-75
2021/12/05 04:08:01;;;;;;;4.10;2.03;;;;;;;;;;4972489;28;20138;-75
2021/12/05 04:10:27;;;;;;;4.07;2.05;;;;;;;;;;4958804;28;20106;-75
2021/12/05 04:12:52;;;;;;;3.10;1.90;;;;;;;;;;4990641;28;20027;-75
2021/12/05 04:15:18;;;;;;;3.42;2.17;;;;;;;;;;4983383;28;20026;-75
2021/12/05 04:17:43;;;;;;;4.93;1.88;;;;;;;;;;4986531;28;20508;-75
2021/12/05 04:20:10;;;;;;;11.98;1.92;;;;;;;;;;4986141;28;20062;-75
2021/12/05 04:22:35;;;;;;;8.45;2.03;;;;;;;;;;4994512;28;20037;-75
2021/12/05 04:25:04;;;;;;;5.60;1.85;;;;;;;;;;4994174;28;20461;-75
2021/12/05 04:27:29;;;;;;;6.65;1.90;;;;;;;;;;4993710;28;20129;-75
2021/12/05 04:29:55;;;;;;;2.30;1.70;;;;;;;;;;4993134;28;20366;-75
2021/12/05 04:32:20;;;;;;;7.50;2.05;;;;;;;;;;4993250;28;20035;-74
2021/12/05 04:34:46;;;;;;;4.32;1.63;;;;;;;;;;4993128;28;20108;-74
2021/12/05 04:37:11;;;;;;;4.82;1.95;;;;;;;;;;4994051;28;20036;-74
2021/12/05 04:39:38;;;;;;;4.95;1.70;;;;;;;;;;4992980;28;20105;-74
2021/12/05 04:42:03;;;;;;;11.25;2.10;;;;;;;;;;4993875;28;20125;-75
2021/12/05 04:44:30;;;;;;;7.80;1.85;;;;;;;;;;4993916;28;20253;-74
2021/12/05 04:46:55;;;;;;;8.48;2.33;;;;;;;;;;4984316;28;20034;-75
2021/12/05 04:49:20;;;;;;;5.53;2.17;;;;;;;;;;4973437;28;20058;-75
2021/12/05 04:51:46;;;;;;;5.80;1.98;;;;;;;;;;4969161;28;20030;-75
2021/12/05 04:54:13;;;;;;;7.25;2.13;;;;;;;;;;4993938;28;20034;-74
2021/12/05 04:56:39;;;;;;;4.43;1.70;;;;;;;;;;4976506;28;20528;-74
2021/12/05 04:59:10;;;;;;;9.77;2.25;;;;;;;;;;4972928;28;20026;-74
2021/12/05 05:01:36;;;;;;;6.43;1.80;;;;;;;;;;4973199;28;20046;-75
2021/12/05 05:04:05;;;;;;;6.85;2.33;;;;;;;;;;4975045;28;20572;-74
2021/12/05 05:06:30;;;;;;;7.55;1.63;;;;;;;;;;4974507;28;20121;-74
2021/12/05 05:08:56;;;;;;;2.60;1.50;;;;;;;;;;4974082;28;20526;-74
2021/12/05 05:11:22;;;;;;;8.25;1.95;;;;;;;;;;4973404;28;20058;-74
2021/12/05 05:13:48;;;;;;;3.88;1.40;;;;;;;;;;4958761;28;20114;-74
2021/12/05 05:16:15;;;;;;;6.88;1.60;;;;;;;;;;4996139;28;20109;-74
2021/12/05 05:18:48;;;;;;;6.35;1.90;;;;;;;;;;5004390;28;20042;-74
2021/12/05 05:21:32;;;;;;;8.43;1.70;;;;;;;;;;5001881;28;20034;-74
2021/12/05 05:24:14;;;;;;;6.10;2.00;;;;;;;;;;4990310;28;20037;-74
2021/12/05 05:29:35;;;;;;;;;;;;;;;;;;4994134;28;20027;-74
2021/12/05 05:46:38;;;;;;;2.63;1.88;;;;;;;;;;4989836;28;20026;-74
2021/12/05 05:50:52;;;;;;;4.65;1.27;;;;;;;;;;4990712;28;20008;-74
2021/12/05 05:53:17;;;;;;;2.65;1.63;;;;;;;;;;4974996;28;20576;-74
2021/12/05 05:55:43;;;;;;;5.15;1.80;;;;;;;;;;4991720;28;20026;-73
2021/12/05 05:58:13;;;;;;;5.13;1.90;;;;;;;;;;4993067;28;20034;-73
2021/12/05 06:00:50;;;;;;;4.93;1.73;;;;;;;;;;4991561;28;20031;-74
2021/12/05 06:03:25;;;;;;;3.75;1.80;;;;;;;;;;4983896;28;20026;-73
2021/12/05 06:05:55;;;;;;;6.03;1.73;;;;;;;;;;4975302;28;20038;-73
2021/12/05 06:08:23;;;;;;;3.05;1.80;;;;;;;;;;4956711;28;20023;-74
2021/12/05 06:10:49;;;;;;;4.13;1.85;;;;;;;;;;4956868;28;20023;-74
2021/12/05 06:13:16;;;;;;;5.13;2.15;;;;;;;;;;4972308;28;20030;-74
2021/12/05 06:15:42;;;;;;;3.97;2.00;;;;;;;;;;4985444;28;20480;-74
2021/12/05 06:18:07;;;;;;;3.60;1.98;;;;;;;;;;4992460;28;20033;-74
2021/12/05 06:20:32;;;;;;;4.10;1.88;;;;;;;;;;4979795;28;20023;-74
2021/12/05 06:22:58;;;;;;;6.03;1.67;;;;;;;;;;4991336;28;20496;-74
2021/12/05 06:25:25;;;;;;;2.22;1.38;;;;;;;;;;5007151;28;20026;-74
2021/12/05 06:27:51;;;;;;;5.55;1.73;;;;;;;;;;4991307;28;20030;-74
2021/12/05 06:30:31;;;;;;;9.23;2.03;;;;;;;;;;4990682;28;20029;-73
2021/12/05 06:38:38;;;;;;;3.92;2.30;;;;;;;;;;4991477;28;20029;-74
2021/12/05 06:46:05;;;;;;;4.47;2.10;;;;;;;;;;4987661;28;19913;-74
2021/12/05 06:48:31;;;;;;;5.68;2.25;;;;;;;;;;4971771;28;20078;-74
2021/12/05 06:50:56;;;;;;;2.25;2.05;;;;;;;;;;4979114;28;20546;-74
2021/12/05 06:53:22;;;;;;;4.13;2.00;;;;;;;;;;4991409;28;20436;-74
2021/12/05 06:55:47;;;;;;;4.78;1.83;;;;;;;;;;4990373;28;20106;-72
2021/12/05 06:58:12;;;;;;;4.40;2.28;;;;;;;;;;4987354;28;20022;-71
2021/12/05 07:00:38;;;;;;;3.38;2.05;;;;;;;;;;4984063;28;20045;-70
2021/12/05 07:03:03;;;;;;;7.35;1.98;;;;;;;;;;4991315;28;20026;-71
2021/12/05 07:07:54;;;;;;;5.75;1.80;;;;;;;;;;4988018;28;20026;-71
2021/12/05 07:10:20;;;;;;;4.40;1.80;;;;;;;;;;4984445;28;20036;-71
2021/12/05 07:15:43;;;;;;;6.38;2.05;;;;;;;;;;4977036;28;20531;-71
2021/12/05 07:26:09;;;;;;;2.10;1.50;;;;;;;;;;4989115;28;20088;-71
2021/12/05 07:42:23;;;;;;;2.42;1.30;;;;;;;;;;4972560;28;20105;-70
2021/12/05 07:44:49;;;;;;;1.10;1.02;;;;;;;;;;4980699;28;20026;-71
2021/12/05 07:47:19;;;;;;;2.50;1.33;;;;;;;;;;4990975;28;20037;-70
2021/12/05 07:49:48;;;;;;;4.60;1.58;;;;;;;;;;4992113;28;20536;-70
2021/12/05 07:52:18;;;;;;;2.95;1.35;;;;;;;;;;4992022;28;20027;-70
2021/12/05 07:54:48;;;;;;;2.97;1.30;;;;;;;;;;4991018;28;20033;-71
2021/12/05 07:57:26;;;;;;;2.28;1.70;;;;;;;;;;4990957;28;20022;-71
2021/12/05 08:00:14;;;;;;;2.35;1.38;;;;;;;;;;4991249;28;20390;-71
2021/12/05 08:16:26;;;;;;;4.80;2.05;;;;;;;;;;4990381;28;20475;-71
2021/12/05 08:18:51;;;;;;;5.40;2.47;;;;;;;;;;4991967;28;20041;-71
2021/12/05 08:21:16;;;;;;;10.88;4.90;;;;;;;;;;4994502;28;20030;-70
2021/12/05 08:23:42;;;;;;;7.43;2.33;;;;;;;;;;4994916;28;20026;-71
2021/12/05 08:26:10;;;;;;;21.50;11.02;;;;;;;;;;4994149;28;20033;-70
2021/12/05 08:34:45;;;;;;;7.43;2.03;;;;;;;;;;4991006;28;20026;-70
2021/12/05 09:30:28;;;;;;;3.72;1.60;;;;;;;;;;4990659;28;20109;-70
2021/12/05 10:03:06;;;;;;;2.53;1.38;;;;;;;;;;4975938;28;20049;-71
2021/12/05 10:37:13;;;;;;;4.90;1.65;;;;;;;;;;4992982;28;20374;-71
2021/12/05 10:39:39;;;;;;;5.95;1.75;;;;;;;;;;4991262;28;20022;-72
2021/12/05 10:42:43;;;;;;;6.20;2.30;;;;;;;;;;4991659;28;20098;-71
2021/12/05 10:45:33;;;;;;;5.68;2.00;;;;;;;;;;4988251;28;20022;-71
2021/12/05 10:48:03;;;;;;;4.25;1.77;;;;;;;;;;4988676;28;20038;-71
2021/12/05 10:50:49;;;;;;;2.85;1.83;;;;;;;;;;5007132;28;20145;-71
2021/12/05 10:53:33;;;;;;;3.33;1.63;;;;;;;;;;4975004;28;20560;-71
2021/12/05 10:56:01;;;;;;;3.67;1.80;;;;;;;;;;4991667;28;20026;-71
2021/12/05 10:58:36;;;;;;;5.63;1.83;;;;;;;;;;4992204;28;20539;-71
2021/12/05 11:01:12;;;;;;;5.97;1.73;;;;;;;;;;4977881;28;20030;-70
2021/12/05 11:03:37;;;;;;;2.25;1.63;;;;;;;;;;4989965;28;20069;-71
2021/12/05 11:06:17;;;;;;;6.63;1.85;;;;;;;;;;4980180;28;20084;-70
2021/12/05 11:08:42;;;;;;;5.07;1.95;;;;;;;;;;4990440;28;20037;-70
2021/12/05 11:11:12;;;;;;;6.22;2.17;;;;;;;;;;4991645;28;20390;-70
2021/12/05 11:13:38;;;;;;;2.22;1.70;;;;;;;;;;4970662;28;20034;-70
2021/12/05 11:16:05;;;;;;;3.30;1.60;;;;;;;;;;4983528;28;20026;-70
2021/12/05 11:18:43;;;;;;;4.40;2.25;;;;;;;;;;4990375;28;20108;-70
2021/12/05 11:21:35;;;;;;;6.07;2.20;;;;;;;;;;4990504;28;20081;-70
2021/12/05 11:24:07;;;;;;;6.00;3.78;;;;;;;;;;4989189;28;20118;-70
2021/12/05 11:26:32;;;;;;;5.50;3.00;;;;;;;;;;4983702;28;20027;-70
2021/12/05 11:28:58;;;;;;;4.22;2.22;;;;;;;;;;4980935;28;20027;-70
2021/12/05 11:31:25;;;;;;;3.78;2.35;;;;;;;;;;4990430;28;20065;-70
2021/12/05 11:33:53;;;;;;;4.38;2.72;;;;;;;;;;4990921;28;20585;-70
2021/12/05 11:36:23;;;;;;;3.85;2.15;;;;;;;;;;4974749;28;20030;-70
2021/12/05 11:38:48;;;;;;;4.35;1.63;;;;;;;;;;4983308;28;20069;-70
2021/12/05 11:41:15;;;;;;;2.50;1.40;;;;;;;;;;4980478;28;20038;-70
2021/12/05 11:43:46;;;;;;;9.40;2.00;;;;;;;;;;4973698;28;20046;-70
2021/12/05 11:46:17;;;;;;;3.13;1.73;;;;;;;;;;4989226;28;20026;-70
2021/12/05 11:48:43;;;;;;;6.65;1.80;;;;;;;;;;4990094;28;20069;-70
2021/12/05 11:51:34;;;;;;;5.00;1.35;;;;;;;;;;4990904;28;20446;-70
2021/12/05 11:54:03;;;;;;;1.65;1.40;;;;;;;;;;4992085;28;20022;-70
2021/12/05 11:56:31;;;;;;;4.22;1.60;;;;;;;;;;4981254;28;20022;-70
2021/12/05 11:59:10;;;;;;;3.72;1.50;;;;;;;;;;4993724;28;20035;-70
2021/12/05 12:01:48;;;;;;;4.30;1.60;;;;;;;;;;4983592;28;20453;-70
2021/12/05 12:04:15;;;;;;;3.75;1.27;;;;;;;;;;4986881;28;20516;-70
2021/12/05 12:06:41;;;;;;;5.70;1.50;;;;;;;;;;4989048;28;20044;-70
2021/12/05 12:09:06;;;;;;;2.70;1.33;;;;;;;;;;4993899;28;20085;-70
2021/12/05 12:11:32;;;;;;;1.98;1.10;;;;;;;;;;4991688;28;20088;-70
2021/12/05 12:13:57;;;;;;;9.25;1.42;;;;;;;;;;4992605;28;20446;-70
2021/12/05 12:16:23;;;;;;;1.50;1.40;;;;;;;;;;4991088;28;20076;-70
2021/12/05 12:18:49;;;;;;;3.05;1.50;;;;;;;;;;4981200;28;20041;-70
2021/12/05 12:21:21;;;;;;;3.75;1.50;;;;;;;;;;4991805;28;20428;-70
2021/12/05 12:23:48;;;;;;;3.80;1.35;;;;;;;;;;4993906;28;20408;-69
2021/12/05 12:26:13;;;;;;;3.80;1.42;;;;;;;;;;4991821;28;20034;-69
2021/12/05 12:28:39;;;;;;;4.22;1.08;;;;;;;;;;4994865;28;20415;-70
2021/12/05 12:31:08;;;;;;;2.53;1.25;;;;;;;;;;4988242;28;20324;-70
2021/12/05 12:33:42;;;;;;;3.30;1.45;;;;;;;;;;4984671;28;20041;-69
2021/12/05 12:36:08;;;;;;;2.38;1.38;;;;;;;;;;4993148;28;20045;-70
2021/12/05 12:38:39;;;;;;;2.63;2.17;;;;;;;;;;4989052;28;20035;-70
2021/12/05 12:41:15;;;;;;;4.72;2.20;;;;;;;;;;5000719;28;20046;-69
2021/12/05 12:43:53;;;;;;;3.85;2.40;;;;;;;;;;4989344;28;20054;-70
2021/12/05 12:46:34;;;;;;;3.20;1.80;;;;;;;;;;4986456;28;20315;-69
2021/12/05 12:49:14;;;;;;;5.55;1.80;;;;;;;;;;4978633;28;20081;-70
2021/12/05 12:52:02;;;;;;;3.22;2.28;;;;;;;;;;4993413;28;20109;-70
2021/12/05 12:54:51;;;;;;;5.05;2.05;;;;;;;;;;4981120;28;20043;-70
2021/12/05 12:57:19;;;;;;;3.28;1.98;;;;;;;;;;4985929;28;20436;-70
2021/12/05 13:00:00;;;;;;;7.65;1.77;;;;;;;;;;4981011;28;20022;-70
2021/12/05 13:07:21;;;;;;;3.45;1.48;;;;;;;;;;4988125;28;20512;-71
2021/12/05 13:11:04;;;;;;;3.10;1.38;;;;;;;;;;4983583;28;20085;-70
2021/12/05 13:13:32;;;;;;;2.78;1.73;;;;;;;;;;4992864;28;20105;-70
2021/12/05 13:16:27;;;;;;;3.83;1.77;;;;;;;;;;4990183;28;20038;-69
2021/12/05 13:19:05;;;;;;;8.77;4.72;;;;;;;;;;4991279;28;20050;-70
2021/12/05 13:21:38;;;;;;;7.90;2.03;;;;;;;;;;4991350;28;20034;-70
2021/12/05 13:24:31;;;;;;;2.00;1.52;;;;;;;;;;4989337;28;20397;-70
2021/12/05 13:27:04;;;;;;;3.35;2.28;;;;;;;;;;4987530;28;20030;-70
2021/12/05 13:29:37;;;;;;;4.45;2.40;;;;;;;;;;4989589;28;20046;-70
2021/12/05 13:32:07;;;;;;;4.40;1.80;;;;;;;;;;5003705;28;20041;-70
2021/12/05 13:34:41;;;;;;;5.57;2.53;;;;;;;;;;4980565;28;20028;-69
2021/12/05 13:37:07;;;;;;;5.28;3.35;;;;;;;;;;4987564;28;20046;-69
2021/12/05 13:39:38;;;;;;;5.85;3.33;;;;;;;;;;4987126;28;20026;-69
2021/12/05 13:42:23;;;;;;;3.33;2.38;;;;;;;;;;4990098;28;20110;-72
2021/12/05 13:45:04;;;;;;;2.97;2.40;;;;;;;;;;4989996;28;20081;-70
2021/12/05 13:47:32;;;;;;;6.63;5.07;;;;;;;;;;4990255;28;20037;-71
2021/12/05 13:50:29;;;;;;;6.95;3.05;;;;;;;;;;4991410;28;20026;-70
2021/12/05 13:53:04;;;;;;;4.40;2.58;;;;;;;;;;4980871;28;20085;-70
2021/12/05 13:55:49;;;;;;;;;;;;;;;;;;4982534;28;20129;-67
2021/12/05 13:58:29;;;;;;;;;;;;;;;;;;4979747;28;19944;-68
2021/12/05 14:01:26;;;;;;;4.70;2.53;;;;;;;;;;4983324;28;20033;-70
2021/12/05 14:03:52;;;;;;;3.55;2.03;;;;;;;;;;4985460;28;20018;-71
2021/12/05 14:06:32;;;;;;;3.42;1.90;;;;;;;;;;4989287;28;20038;-71
2021/12/05 14:09:08;;;;;;;2.75;1.67;;;;;;;;;;4983030;28;20101;-69
2021/12/05 14:11:34;;;;;;;3.00;2.13;;;;;;;;;;4990961;28;20477;-70
2021/12/05 14:14:04;;;;;;;3.42;1.85;;;;;;;;;;4987600;28;20023;-70
2021/12/05 14:16:34;;;;;;;3.58;1.90;;;;;;;;;;4984060;28;20109;-70
2021/12/05 14:18:59;;;;;;;2.63;1.73;;;;;;;;;;4990435;28;20053;-70
2021/12/05 14:21:26;;;;;;;2.50;1.63;;;;;;;;;;4990023;28;20069;-69
2021/12/05 14:23:56;;;;;;;3.33;1.70;;;;;;;;;;4988494;28;20454;-70
2021/12/05 14:26:25;;;;;;;3.17;1.83;;;;;;;;;;4979878;28;20117;-70
2021/12/05 14:29:03;;;;;;;2.17;1.60;;;;;;;;;;4984874;28;20030;-70
2021/12/05 14:31:34;;;;;;;7.28;2.25;;;;;;;;;;4986777;28;20133;-69
2021/12/05 14:33:59;;;;;;;5.47;2.08;;;;;;;;;;4983189;28;20481;-70
2021/12/05 14:36:29;;;;;;;5.72;1.70;;;;;;;;;;4986577;28;20081;-70
2021/12/05 14:39:21;;;;;;;5.13;1.75;;;;;;;;;;4988178;28;20523;-69
2021/12/05 14:41:48;;;;;;;1.63;1.52;;;;;;;;;;5002219;28;20499;-70
2021/12/05 14:44:15;;;;;;;1.80;1.45;;;;;;;;;;4986357;28;20022;-71
2021/12/05 14:46:48;;;;;;;3.08;1.63;;;;;;;;;;4981973;28;20022;-71
2021/12/05 14:49:13;;;;;;;5.00;2.00;;;;;;;;;;4983974;28;20034;-70
2021/12/05 14:51:40;;;;;;;3.33;2.00;;;;;;;;;;4983668;28;20096;-70
2021/12/05 14:54:06;;;;;;;3.00;2.05;;;;;;;;;;4986657;28;20065;-70
2021/12/05 14:56:34;;;;;;;3.97;2.10;;;;;;;;;;4988768;28;20053;-70
2021/12/05 14:59:13;;;;;;;4.30;2.50;;;;;;;;;;4984934;28;20048;-70
2021/12/05 15:01:41;;;;;;;3.47;2.45;;;;;;;;;;4986366;28;20100;-70
2021/12/05 15:04:06;;;;;;;4.40;2.60;;;;;;;;;;4987148;28;20073;-70
2021/12/05 15:06:39;;;;;;;7.80;3.25;;;;;;;;;;4984518;28;20061;-70
2021/12/05 15:09:08;;;;;;;3.85;2.78;;;;;;;;;;4987978;28;20112;-69
2021/12/05 15:11:33;;;;;;;2.85;2.28;;;;;;;;;;4983665;28;20062;-70
2021/12/05 15:14:06;;;;;;;8.02;2.50;;;;;;;;;;4986263;28;20116;-70
2021/12/05 15:16:31;;;;;;;4.63;3.50;;;;;;;;;;4982663;28;20027;-70
2021/12/05 15:18:57;;;;;;;9.35;5.53;;;;;;;;;;5002051;28;20030;-70
2021/12/05 15:21:22;;;;;;;7.13;3.97;;;;;;;;;;4985732;28;20034;-70
2021/12/05 15:23:48;;;;;;;5.90;3.33;;;;;;;;;;4984193;28;20022;-70
2021/12/05 15:26:14;;;;;;;11.23;3.65;;;;;;;;;;4981862;28;20300;-70
2021/12/05 15:28:40;;;;;;;8.63;3.83;;;;;;;;;;4988749;28;20472;-70
2021/12/05 15:31:05;;;;;;;6.22;3.03;;;;;;;;;;4989816;28;20096;-70
2021/12/05 15:33:33;;;;;;;4.15;2.80;;;;;;;;;;4989758;28;20236;-70
2021/12/05 15:35:59;;;;;;;6.97;2.58;;;;;;;;;;4990150;28;20026;-70
2021/12/05 15:38:27;;;;;;;6.03;2.67;;;;;;;;;;4990446;28;20173;-71
2021/12/05 15:40:57;;;;;;;8.32;2.22;;;;;;;;;;4990746;28;20030;-70
2021/12/05 15:43:25;;;;;;;5.35;1.77;;;;;;;;;;4992266;28;20677;-69
2021/12/05 15:45:51;;;;;;;3.58;1.77;;;;;;;;;;4988783;28;20037;-70
2021/12/05 15:48:29;;;;;;;3.80;1.73;;;;;;;;;;4989622;28;20424;-70
2021/12/05 15:50:55;;;;;;;6.20;1.77;;;;;;;;;;4988158;28;20118;-71
2021/12/05 15:53:21;;;;;;;4.70;2.45;;;;;;;;;;4988947;28;20121;-70
2021/12/05 15:55:50;;;;;;;3.72;2.22;;;;;;;;;;4993658;28;20030;-70
2021/12/05 15:58:38;;;;;;;6.28;1.80;;;;;;;;;;4989932;28;20022;-70
2021/12/05 16:01:06;;;;;;;4.50;1.70;;;;;;;;;;4982534;28;20057;-70
2021/12/05 16:03:45;;;;;;;1.88;1.40;;;;;;;;;;4988458;28;20155;-70
2021/12/05 16:06:13;;;;;;;4.38;1.58;;;;;;;;;;4992251;28;20033;-70
2021/12/05 16:08:39;;;;;;;3.22;1.48;;;;;;;;;;4984107;28;20401;-70
2021/12/05 16:11:13;;;;;;;10.05;3.53;;;;;;;;;;4988964;28;20034;-70
2021/12/05 16:13:41;;;;;;;10.65;4.15;;;;;;;;;;4989224;28;20038;-70
2021/12/05 16:16:11;;;;;;;6.35;3.13;;;;;;;;;;4989794;28;20027;-70
2021/12/05 16:18:37;;;;;;;6.15;2.67;;;;;;;;;;4988372;28;20485;-70
2021/12/05 16:21:05;;;;;;;3.65;1.98;;;;;;;;;;4993165;28;20049;-70
2021/12/05 16:23:32;;;;;;;7.50;2.08;;;;;;;;;;4999491;28;20121;-69
2021/12/05 16:26:06;;;;;;;4.78;2.10;;;;;;;;;;4990278;28;20019;-70
2021/12/05 16:28:38;;;;;;;5.82;2.17;;;;;;;;;;4991084;28;20026;-70
2021/12/05 16:31:09;;;;;;;3.20;1.95;;;;;;;;;;4989177;28;20129;-70
2021/12/05 16:33:35;;;;;;;3.40;2.17;;;;;;;;;;4977029;28;20073;-70
2021/12/05 16:36:00;;;;;;;4.63;2.53;;;;;;;;;;4971316;28;20101;-70
2021/12/05 16:38:31;;;;;;;2.95;2.22;;;;;;;;;;4978112;28;20069;-70
2021/12/05 16:40:59;;;;;;;4.55;2.70;;;;;;;;;;4988520;28;20027;-70
2021/12/05 16:43:24;;;;;;;7.07;2.90;;;;;;;;;;4990904;28;20477;-70
2021/12/05 16:45:57;;;;;;;2.95;2.65;;;;;;;;;;4993764;28;20030;-70
2021/12/05 16:48:23;;;;;;;6.00;2.47;;;;;;;;;;4987023;28;20026;-70
2021/12/05 16:50:48;;;;;;;2.65;2.05;;;;;;;;;;4992620;28;20026;-70
2021/12/05 16:53:15;;;;;;;5.82;2.70;;;;;;;;;;4993265;28;20389;-69
2021/12/05 16:55:45;;;;;;;4.78;2.30;;;;;;;;;;4987068;28;20030;-70
2021/12/05 16:58:17;;;;;;;2.25;2.08;;;;;;;;;;5009006;28;20037;-70
2021/12/05 17:00:45;;;;;;;2.42;2.10;;;;;;;;;;4990486;28;20039;-70
2021/12/05 17:03:16;;;;;;;4.93;2.88;;;;;;;;;;4988011;28;20464;-70
2021/12/05 17:05:44;;;;;;;5.13;2.95;;;;;;;;;;4991586;28;20030;-70
2021/12/05 17:08:13;;;;;;;5.45;3.90;;;;;;;;;;4990394;28;20027;-70
2021/12/05 17:10:56;;;;;;;7.93;4.40;;;;;;;;;;4981275;28;20023;-70
2021/12/05 17:13:31;;;;;;;6.88;4.43;;;;;;;;;;4991786;28;20038;-70
2021/12/05 17:16:07;;;;;;;7.00;3.65;;;;;;;;;;4988483;28;20022;-70
2021/12/05 17:18:34;;;;;;;6.32;4.03;;;;;;;;;;4989516;28;20041;-70
2021/12/05 17:21:04;;;;;;;6.05;3.22;;;;;;;;;;4990910;28;20436;-70
2021/12/05 17:23:39;;;;;;;6.50;3.45;;;;;;;;;;4992951;28;20852;-69
2021/12/05 17:26:16;;;;;;;3.50;2.58;;;;;;;;;;4992164;28;20030;-71
2021/12/05 17:28:45;;;;;;;4.15;2.40;;;;;;;;;;4991476;28;20033;-70
2021/12/05 17:31:12;;;;;;;4.35;2.88;;;;;;;;;;4988109;28;20137;-69
2021/12/05 17:33:48;;;;;;;4.82;2.42;;;;;;;;;;4989890;28;20117;-71
2021/12/05 17:36:16;;;;;;;4.90;2.50;;;;;;;;;;4993636;28;20435;-71
2021/12/05 17:38:41;;;;;;;5.95;2.67;;;;;;;;;;4977979;28;20057;-70
2021/12/05 17:41:07;;;;;;;4.03;2.38;;;;;;;;;;4993434;28;20038;-70
2021/12/05 17:43:32;;;;;;;4.63;2.83;;;;;;;;;;4983690;28;20033;-71
2021/12/05 17:45:57;;;;;;;3.47;2.35;;;;;;;;;;4988848;28;20393;-69
2021/12/05 17:48:23;;;;;;;3.55;1.88;;;;;;;;;;4985510;28;20101;-70
2021/12/05 17:50:52;;;;;;;2.72;2.13;;;;;;;;;;4991167;28;20033;-70
2021/12/05 17:53:18;;;;;;;3.17;1.95;;;;;;;;;;4990363;28;20030;-70
2021/12/05 17:55:46;;;;;;;3.08;1.90;;;;;;;;;;4988144;28;20033;-69
2021/12/05 17:58:35;;;;;;;4.07;2.63;;;;;;;;;;4988840;28;20030;-70
2021/12/05 18:03:45;;;;;;;3.17;1.92;;;;;;;;;;4988172;28;20567;-70
2021/12/05 18:06:10;;;;;;;6.50;2.60;;;;;;;;;;4990782;28;20382;-67
2021/12/05 18:08:35;;;;;;;4.03;2.53;;;;;;;;;;4992746;28;20022;-70
2021/12/05 18:11:07;;;;;;;2.50;2.30;;;;;;;;;;4989887;28;20112;-70
2021/12/05 18:13:36;;;;;;;4.38;2.80;;;;;;;;;;4988872;28;20428;-70
2021/12/05 18:16:11;;;;;;;6.30;3.00;;;;;;;;;;4981759;28;20540;-69
2021/12/05 18:18:37;;;;;;;6.00;2.85;;;;;;;;;;4987775;28;20470;-70
2021/12/05 18:21:04;;;;;;;8.70;3.40;;;;;;;;;;4991274;28;20026;-70
2021/12/05 18:23:30;;;;;;;5.13;3.33;;;;;;;;;;4991630;28;20029;-69
2021/12/05 18:25:56;;;;;;;8.02;4.00;;;;;;;;;;4991616;28;20473;-70
2021/12/05 18:28:21;;;;;;;5.85;3.72;;;;;;;;;;4989096;28;20030;-70
2021/12/05 18:30:46;;;;;;;3.97;3.05;;;;;;;;;;4987821;28;20038;-70
2021/12/05 18:33:12;;;;;;;3.35;2.80;;;;;;;;;;4991525;28;20157;-69
2021/12/05 18:35:37;;;;;;;4.07;3.15;;;;;;;;;;4992094;28;20384;-69
2021/12/05 18:38:07;;;;;;;7.93;3.90;;;;;;;;;;4990107;28;20026;-70
2021/12/05 18:40:34;;;;;;;8.82;4.45;;;;;;;;;;4986426;28;20042;-69
2021/12/05 18:42:59;;;;;;;5.50;4.10;;;;;;;;;;5001515;28;20069;-69
2021/12/05 18:45:28;;;;;;;4.35;3.33;;;;;;;;;;4989591;28;20113;-69
2021/12/05 18:47:54;;;;;;;7.68;3.45;;;;;;;;;;4988023;28;20030;-69
2021/12/05 18:50:19;;;;;;;4.00;3.28;;;;;;;;;;4989923;28;20563;-70
2021/12/05 18:52:44;;;;;;;8.73;3.47;;;;;;;;;;4989771;28;20018;-70
2021/12/05 18:55:12;;;;;;;5.20;4.05;;;;;;;;;;4990745;28;20030;-68
2021/12/05 18:57:39;;;;;;;9.82;4.80;;;;;;;;;;4988733;28;20042;-70
2021/12/05 19:00:12;;;;;;;7.55;5.07;;;;;;;;;;4990327;28;20034;-69
2021/12/05 19:05:46;;;;;;;7.38;4.90;;;;;;;;;;4982152;28;20045;-69
2021/12/05 19:13:21;;;;;;;4.38;3.47;;;;;;;;;;4989219;28;20077;-68
2021/12/05 19:15:47;;;;;;;8.60;3.75;;;;;;;;;;4986625;28;20018;-69
2021/12/05 19:18:14;;;;;;;4.13;3.38;;;;;;;;;;4988284;28;20527;-70
2021/12/05 19:20:40;;;;;;;4.78;3.30;;;;;;;;;;4986845;28;20030;-70
2021/12/05 19:23:05;;;;;;;3.38;2.95;;;;;;;;;;4983539;28;20097;-70
2021/12/05 19:25:34;;;;;;;4.85;3.20;;;;;;;;;;4982944;28;20161;-70
2021/12/05 19:28:00;;;;;;;3.53;2.90;;;;;;;;;;4994077;28;20034;-69
2021/12/05 19:30:42;;;;;;;3.28;2.50;;;;;;;;;;4984001;28;20335;-70
2021/12/05 19:33:09;;;;;;;4.20;3.25;;;;;;;;;;4987587;28;20026;-70
2021/12/05 19:35:34;;;;;;;5.85;3.33;;;;;;;;;;4987026;28;20022;-70
2021/12/05 19:38:00;;;;;;;3.50;2.97;;;;;;;;;;4985632;28;20081;-69
2021/12/05 19:40:25;;;;;;;3.30;2.22;;;;;;;;;;4985044;28;20050;-69
2021/12/05 19:42:51;;;;;;;3.53;2.60;;;;;;;;;;4987979;28;20083;-69
2021/12/05 19:45:17;;;;;;;6.90;3.80;;;;;;;;;;4987683;28;20440;-69
2021/12/05 19:47:42;;;;;;;4.65;3.30;;;;;;;;;;4985563;28;20026;-69
2021/12/05 19:50:09;;;;;;;5.30;3.60;;;;;;;;;;4987267;28;20022;-69
2021/12/05 19:52:34;;;;;;;7.05;3.83;;;;;;;;;;4988284;28;20023;-70
2021/12/05 19:54:59;;;;;;;7.97;4.95;;;;;;;;;;4983819;28;20030;-69
2021/12/05 19:57:25;;;;;;;11.68;5.30;;;;;;;;;;4990046;28;21832;-69
2021/12/05 19:59:50;;;;;;;7.75;4.90;;;;;;;;;;4986575;28;20034;-69
2021/12/05 20:02:16;;;;;;;7.65;4.85;;;;;;;;;;4987348;28;20398;-68
2021/12/05 20:04:43;;;;;;;5.65;3.72;;;;;;;;;;4987653;28;20475;-69
2021/12/05 20:07:08;;;;;;;7.60;4.53;;;;;;;;;;4985266;28;20050;-69
2021/12/05 20:09:33;;;;;;;4.63;3.13;;;;;;;;;;4986997;28;20108;-68
2021/12/05 20:11:59;;;;;;;4.72;3.42;;;;;;;;;;4988618;28;20026;-69
2021/12/05 20:14:26;;;;;;;6.32;3.17;;;;;;;;;;4984449;28;20026;-69
2021/12/05 20:16:51;;;;;;;5.43;3.53;;;;;;;;;;4973674;28;20045;-69
2021/12/05 20:19:16;;;;;;;7.47;4.63;;;;;;;;;;4987007;28;20042;-70
2021/12/05 20:21:43;;;;;;;7.88;4.85;;;;;;;;;;4992842;28;20026;-70
2021/12/05 20:24:09;;;;;;;6.10;4.45;;;;;;;;;;4987678;28;20025;-69
2021/12/05 20:26:35;;;;;;;5.95;3.95;;;;;;;;;;4990313;28;20027;-69